Minot, ND (58701)

9:31 PM CST on March 02, 2015 (GMT -0600)
Edgeview Estates | Change Station
CLOSE
Current Station
Personal Weather Station
Location: Minot, ND
Elevation: 1752 ft
Nearby Weather Stations
Active Advisory: Wind Advisory

Elev 1752 ft 48.21 °N, 101.33 °W | Updated 38 seconds ago

Light Snow
Light Snow
19.7 °F
Feels Like 5 °F
N
17.0
Wind Variable Wind from WNW
Gusts 25.0 mph

Today
High -- | Low -- °F
--% Chance of Precip.
Yesterday
High -- | Low -- °F
Precip. -- in
7:24 AM 6:30 PM
Waxing Gibbous, 94% visible
Pressure 29.79 in
Visibility 9.0 miles
Clouds Scattered Clouds 1700 ft
Windchill 5 °F
Dew Point 13 °F
Humidity 75%
Rainfall 0.00 in
Snow Depth Not available.
UV 0 out of 12
Pollen .10 out of 12
Air Quality Not available.
Flu Activity Not available.
SPECI KMOT 030322Z AUTO 28024KT 9SM -SN SCT017 M07/M11 A2979 RMK AO2 PK WND 29034/0300 P0000 T10721106

More Conditions Fewer Conditions

Pressure 29.79 in
Visibility 9.0 miles
Clouds Scattered Clouds 1700 ft
Windchill 5 °F
Dew Point 13 °F
Humidity 75%
Rainfall 0.00 in
Snow Depth Not available.
UV 0 out of 12
Pollen .10 out of 12
Air Quality Not available.
Flu Activity Not available.
SPECI KMOT 030322Z AUTO 28024KT 9SM -SN SCT017 M07/M11 A2979 RMK AO2 PK WND 29034/0300 P0000 T10721106

More Conditions Fewer Conditions

10-Day Weather Forecast

Almanac

Astronomy

Mar. 02, 2015 Rise Set
Actual Time
Civil Twilight
Nautical Twilight
Astronomical Twilight
Moon
Length of Visible Light
Length of Day
Tomorrow will be .
, % of the Moon is Illuminated

Today's Extremes

State Highs State Lows

Community

WunderPhotos

Upload Photos

1,802,060 photos uploaded!

WunderBlogs® & News

Nearby

Air Quality

  Air Quality AQ Index Pollutant
Not available.

Snow Depth

Station Depth Elevation

Earthquake Activity

City Distance Mag. Time & Date
Minimum magnitude displayed is 2.5.

Coastal Water Temperatures

Place Temperature

Nearby Weather Stations

Wind Advisory
Statement as of 2:25 PM CST on March 02, 2015

... Wind Advisory in effect from midnight tonight to 6 PM CST
Tuesday...

The National Weather Service in Bismarck has issued a Wind
Advisory... which is in effect from midnight tonight to 6 PM CST
Tuesday.

* Timing... tonight through Tuesday afternoon.

* Winds... northwesterly sustained 30 mph. Gusts to 45 mph.

* Impacts... difficult driving conditions for high profile
vehicles. Working on elevated structures will be hazardous.
Areas of blowing snow east of the Missouri River.



Tm/NH/ck/jpm